createdAt,value
2023-03-03T05:41:47.735Z,16.20
2023-03-03T05:44:15.088Z,12.70
2023-03-03T05:46:42.746Z,13.30
2023-03-03T05:49:09.975Z,12.80
2023-03-03T05:51:36.849Z,12.80
2023-03-03T05:54:03.662Z,13.50
2023-03-03T05:56:30.358Z,10.80
2023-03-03T05:58:57.032Z,11.60
2023-03-03T06:01:23.726Z,12.10
2023-03-03T06:03:50.505Z,14.00
2023-03-03T06:06:18.646Z,16.10
2023-03-03T06:08:45.469Z,17.20
2023-03-03T06:11:16.099Z,18.10
2023-03-03T06:14:03.234Z,13.60
2023-03-03T06:16:30.027Z,12.80
2023-03-03T06:18:58.558Z,13.30
2023-03-03T06:21:25.953Z,17.20
2023-03-03T06:23:53.136Z,14.00
2023-03-03T06:26:20.025Z,13.10
2023-03-03T06:28:49.530Z,15.20
2023-03-03T06:31:16.311Z,14.50
2023-03-03T06:33:43.585Z,13.10
2023-03-03T06:36:13.768Z,10.50
2023-03-03T06:38:43.000Z,14.30
2023-03-03T06:41:10.801Z,13.70
2023-03-03T06:43:46.041Z,10.60
2023-03-03T06:46:21.907Z,10.70
2023-03-03T06:52:14.747Z,14.80
2023-03-03T06:54:42.313Z,12.30
2023-03-03T06:57:33.929Z,10.50
2023-03-03T07:00:25.403Z,13.40
2023-03-03T07:03:02.859Z,14.50
2023-03-03T07:05:35.920Z,17.50
2023-03-03T07:08:24.677Z,12.40
2023-03-03T07:11:07.047Z,13.20
2023-03-03T07:13:53.710Z,10.20
2023-03-03T07:16:26.239Z,13.00
2023-03-03T07:19:04.882Z,12.20
2023-03-03T07:21:34.112Z,11.80
2023-03-03T07:24:01.453Z,15.80
2023-03-03T07:26:32.583Z,13.80
2023-03-03T07:29:16.319Z,14.40
2023-03-03T07:31:46.021Z,16.10
2023-03-03T07:34:42.494Z,16.40
2023-03-03T07:37:37.986Z,19.20
2023-03-03T07:40:29.869Z,16.30
2023-03-03T07:42:57.273Z,17.80
2023-03-03T07:45:36.365Z,22.80
2023-03-03T07:48:12.417Z,30.80
2023-03-03T07:50:41.723Z,31.30
2023-03-03T07:53:37.525Z,38.00
2023-03-03T07:56:29.723Z,32.00
2023-03-03T07:58:56.831Z,30.00
2023-03-03T08:01:57.507Z,29.60
2023-03-03T08:04:29.831Z,23.50
2023-03-03T08:07:02.703Z,19.10
2023-03-03T08:09:43.708Z,14.70
2023-03-03T08:12:24.382Z,15.20
2023-03-03T08:14:51.830Z,17.00
2023-03-03T08:17:25.732Z,20.00
2023-03-03T08:19:52.719Z,18.30
2023-03-03T08:22:34.363Z,17.90
2023-03-03T08:25:02.138Z,18.10
2023-03-03T08:27:29.064Z,16.90
2023-03-03T08:29:55.791Z,19.00
2023-03-03T08:32:22.708Z,20.20
2023-03-03T08:34:49.592Z,26.70
2023-03-03T08:37:18.333Z,25.10
2023-03-03T08:39:45.464Z,36.40
2023-03-03T08:42:14.181Z,23.00
2023-03-03T08:44:42.886Z,26.30
2023-03-03T08:47:09.767Z,15.30
2023-03-03T08:49:39.423Z,17.40
2023-03-03T08:52:06.180Z,24.90
2023-03-03T08:54:32.903Z,23.30
2023-03-03T08:57:00.202Z,20.60
2023-03-03T08:59:27.389Z,18.40
2023-03-03T09:01:54.567Z,16.70
2023-03-03T09:04:21.518Z,16.10
2023-03-03T09:06:49.009Z,18.00
2023-03-03T09:09:15.897Z,14.00
2023-03-03T09:11:44.521Z,17.90
2023-03-03T09:14:13.656Z,13.30
2023-03-03T09:16:50.908Z,19.20
2023-03-03T09:19:21.373Z,15.70
2023-03-03T09:21:48.109Z,16.90
2023-03-03T09:24:25.375Z,18.30
2023-03-03T09:26:53.091Z,15.90
2023-03-03T09:29:34.267Z,15.90
2023-03-03T09:32:26.846Z,16.20
2023-03-03T09:34:54.196Z,17.20
2023-03-03T09:37:28.037Z,17.20
2023-03-03T09:39:55.557Z,16.00
2023-03-03T09:42:34.798Z,15.30
2023-03-03T09:45:23.709Z,15.50
2023-03-03T09:47:50.399Z,17.20
2023-03-03T09:50:57.815Z,16.50
2023-03-03T09:54:08.287Z,18.40
2023-03-03T09:56:43.956Z,13.80
2023-03-03T09:59:45.798Z,13.40
2023-03-03T10:02:24.105Z,16.40
2023-03-03T10:05:23.157Z,16.90
2023-03-03T10:11:09.963Z,16.90
2023-03-03T10:13:48.643Z,14.90
2023-03-03T10:16:33.492Z,16.80
2023-03-03T10:19:10.496Z,14.60
2023-03-03T10:21:42.094Z,12.00
2023-03-03T10:24:14.794Z,15.30
2023-03-03T10:27:09.801Z,16.20
2023-03-03T10:29:52.844Z,15.70
2023-03-03T10:32:27.728Z,15.40
2023-03-03T10:35:26.143Z,19.00
2023-03-03T10:38:17.676Z,28.00
2023-03-03T10:41:09.094Z,50.00
2023-03-03T10:43:45.530Z,37.20
2023-03-03T10:46:32.545Z,33.30
2023-03-03T10:49:02.305Z,20.90
2023-03-03T10:51:41.873Z,29.70
2023-03-03T10:54:21.197Z,19.60
2023-03-03T10:56:57.658Z,22.30
2023-03-03T10:59:31.273Z,16.80
2023-03-03T11:02:08.231Z,16.70
2023-03-03T11:05:11.666Z,18.30
2023-03-03T11:08:11.116Z,20.30
2023-03-03T11:11:15.523Z,19.70
2023-03-03T11:13:53.968Z,13.90
2023-03-03T11:16:37.316Z,9.60
2023-03-03T11:19:29.608Z,12.50
2023-03-03T11:22:08.204Z,23.70
2023-03-03T11:25:04.028Z,15.50
2023-03-03T11:27:47.476Z,15.70
2023-03-03T11:30:29.673Z,14.40
2023-03-03T11:33:02.039Z,14.80
2023-03-03T11:35:47.384Z,22.80
2023-03-03T11:38:39.844Z,19.50
2023-03-03T11:41:13.762Z,22.10
2023-03-03T11:44:19.287Z,23.40
2023-03-03T11:46:54.159Z,23.10
2023-03-03T11:49:33.480Z,12.30
2023-03-03T11:52:06.017Z,20.10
2023-03-03T11:54:44.038Z,14.10
2023-03-03T11:57:27.351Z,13.30
2023-03-03T12:02:51.075Z,11.40
2023-03-03T12:05:55.718Z,14.40
2023-03-03T12:08:25.336Z,18.70
2023-03-03T12:11:10.716Z,14.50
2023-03-03T12:13:57.898Z,22.50
2023-03-03T12:16:28.861Z,19.30
2023-03-03T12:18:58.629Z,20.70
2023-03-03T12:21:29.155Z,19.20
2023-03-03T12:24:03.753Z,18.50
2023-03-03T12:26:35.508Z,17.80
2023-03-03T12:29:11.200Z,18.40
2023-03-03T12:31:45.136Z,16.80
2023-03-03T12:34:33.187Z,17.80
2023-03-03T12:37:10.138Z,16.80
2023-03-03T12:39:43.322Z,19.30
2023-03-03T12:42:31.852Z,17.60
2023-03-03T12:44:58.680Z,19.40
2023-03-03T12:47:37.967Z,23.80
2023-03-03T12:50:37.251Z,19.00
2023-03-03T12:53:10.673Z,17.50
2023-03-03T12:56:06.078Z,16.30
2023-03-03T12:58:55.139Z,19.90
2023-03-03T13:01:21.841Z,14.40
2023-03-03T13:04:19.516Z,18.80
2023-03-03T13:06:53.153Z,19.40
2023-03-03T13:09:54.124Z,17.90
2023-03-03T13:12:40.763Z,20.50
2023-03-03T13:15:12.619Z,21.80
2023-03-03T13:17:43.490Z,19.90
2023-03-03T13:20:29.601Z,23.10
2023-03-03T13:23:21.957Z,23.60
2023-03-03T13:26:10.922Z,21.00
